sensor_id;sensor_type;location;lat;lon;timestamp;pressure;altitude;pressure_sealevel;temperature;humidity
55149;BME280;49539;48.160;11.530;2022-07-29T00:01:29;95736.97;;;20.39;100.00
55149;BME280;49539;48.160;11.530;2022-07-29T00:03:55;95733.66;;;20.35;100.00
55149;BME280;49539;48.160;11.530;2022-07-29T00:06:20;95737.22;;;20.41;100.00
55149;BME280;49539;48.160;11.530;2022-07-29T00:08:46;95737.84;;;20.24;100.00
55149;BME280;49539;48.160;11.530;2022-07-29T00:11:11;95731.28;;;20.22;100.00
55149;BME280;49539;48.160;11.530;2022-07-29T00:13:37;95728.41;;;20.11;100.00
55149;BME280;49539;48.160;11.530;2022-07-29T00:16:03;95733.88;;;20.05;100.00
55149;BME280;49539;48.160;11.530;2022-07-29T00:18:28;95721.84;;;20.08;100.00
55149;BME280;49539;48.160;11.530;2022-07-29T00:20:54;95723.91;;;20.13;100.00
55149;BME280;49539;48.160;11.530;2022-07-29T00:23:19;95734.59;;;20.00;100.00
55149;BME280;49539;48.160;11.530;2022-07-29T00:25:45;95736.09;;;20.01;100.00
55149;BME280;49539;48.160;11.530;2022-07-29T00:28:10;95739.97;;;20.09;100.00
55149;BME280;49539;48.160;11.530;2022-07-29T00:30:35;95742.88;;;20.00;100.00
55149;BME280;49539;48.160;11.530;2022-07-29T00:33:01;95743.75;;;20.12;100.00
55149;BME280;49539;48.160;11.530;2022-07-29T00:35:26;95734.63;;;20.05;100.00
55149;BME280;49539;48.160;11.530;2022-07-29T00:38:14;95741.25;;;20.14;100.00
55149;BME280;49539;48.160;11.530;2022-07-29T00:40:41;95731.25;;;20.16;100.00
55149;BME280;49539;48.160;11.530;2022-07-29T00:43:06;95733.66;;;20.08;100.00
55149;BME280;49539;48.160;11.530;2022-07-29T00:45:32;95721.34;;;20.10;100.00
55149;BME280;49539;48.160;11.530;2022-07-29T00:47:58;95714.75;;;20.01;100.00
55149;BME280;49539;48.160;11.530;2022-07-29T00:50:23;95716.38;;;20.14;100.00
55149;BME280;49539;48.160;11.530;2022-07-29T00:52:50;95711.28;;;20.06;100.00
55149;BME280;49539;48.160;11.530;2022-07-29T00:55:16;95710.25;;;20.04;100.00
55149;BME280;49539;48.160;11.530;2022-07-29T00:57:43;95705.75;;;20.06;100.00
55149;BME280;49539;48.160;11.530;2022-07-29T01:00:21;95703.59;;;20.16;100.00
55149;BME280;49539;48.160;11.530;2022-07-29T01:02:47;95691.53;;;20.19;100.00
55149;BME280;49539;48.160;11.530;2022-07-29T01:05:21;95682.69;;;20.15;100.00
55149;BME280;49539;48.160;11.530;2022-07-29T01:07:49;95682.75;;;20.21;100.00
55149;BME280;49539;48.160;11.530;2022-07-29T01:10:16;95677.25;;;20.26;100.00
55149;BME280;49539;48.160;11.530;2022-07-29T01:12:43;95673.63;;;20.15;100.00
55149;BME280;49539;48.160;11.530;2022-07-29T01:15:09;95680.06;;;20.32;100.00
55149;BME280;49539;48.160;11.530;2022-07-29T01:18:01;95667.28;;;20.35;100.00
55149;BME280;49539;48.160;11.530;2022-07-29T01:26:17;95679.66;;;20.45;100.00
55149;BME280;49539;48.160;11.530;2022-07-29T01:29:26;95684.28;;;20.22;100.00
55149;BME280;49539;48.160;11.530;2022-07-29T01:32:09;95687.75;;;20.17;100.00
55149;BME280;49539;48.160;11.530;2022-07-29T01:34:40;95691.38;;;20.02;100.00
55149;BME280;49539;48.160;11.530;2022-07-29T01:39:39;95679.53;;;19.96;100.00
55149;BME280;49539;48.160;11.530;2022-07-29T01:47:38;95667.56;;;20.11;100.00
55149;BME280;49539;48.160;11.530;2022-07-29T01:50:08;95670.41;;;20.16;100.00
55149;BME280;49539;48.160;11.530;2022-07-29T01:52:51;95666.91;;;20.21;100.00
55149;BME280;49539;48.160;11.530;2022-07-29T01:55:20;95665.16;;;20.24;100.00
55149;BME280;49539;48.160;11.530;2022-07-29T01:57:48;95664.47;;;20.29;100.00
55149;BME280;49539;48.160;11.530;2022-07-29T02:00:15;95666.47;;;20.28;100.00
55149;BME280;49539;48.160;11.530;2022-07-29T02:02:43;95662.94;;;20.28;100.00
55149;BME280;49539;48.160;11.530;2022-07-29T02:05:12;95666.53;;;20.34;100.00
55149;BME280;49539;48.160;11.530;2022-07-29T02:07:40;95663.00;;;20.33;100.00
55149;BME280;49539;48.160;11.530;2022-07-29T02:10:07;95657.88;;;20.21;100.00
55149;BME280;49539;48.160;11.530;2022-07-29T02:12:34;95659.88;;;20.20;100.00
55149;BME280;49539;48.160;11.530;2022-07-29T02:15:03;95654.59;;;20.22;100.00
55149;BME280;49539;48.160;11.530;2022-07-29T02:17:33;95654.59;;;20.22;100.00
55149;BME280;49539;48.160;11.530;2022-07-29T02:20:03;95653.88;;;20.27;100.00
55149;BME280;49539;48.160;11.530;2022-07-29T02:22:31;95649.34;;;20.24;100.00
55149;BME280;49539;48.160;11.530;2022-07-29T02:24:59;95640.81;;;20.28;100.00
55149;BME280;49539;48.160;11.530;2022-07-29T02:27:26;95638.97;;;20.19;100.00
55149;BME280;49539;48.160;11.530;2022-07-29T02:29:54;95638.00;;;20.22;100.00
55149;BME280;49539;48.160;11.530;2022-07-29T02:32:21;95628.16;;;20.16;100.00
55149;BME280;49539;48.160;11.530;2022-07-29T02:34:48;95626.38;;;20.13;100.00
55149;BME280;49539;48.160;11.530;2022-07-29T02:37:16;95632.38;;;20.11;100.00
55149;BME280;49539;48.160;11.530;2022-07-29T02:39:45;95637.59;;;20.03;100.00
55149;BME280;49539;48.160;11.530;2022-07-29T02:42:16;95639.28;;;19.95;100.00
55149;BME280;49539;48.160;11.530;2022-07-29T02:44:42;95635.38;;;20.07;100.00
55149;BME280;49539;48.160;11.530;2022-07-29T02:47:43;95633.09;;;20.06;100.00
55149;BME280;49539;48.160;11.530;2022-07-29T02:52:57;95633.13;;;20.12;100.00
55149;BME280;49539;48.160;11.530;2022-07-29T02:55:30;95633.81;;;20.01;100.00
55149;BME280;49539;48.160;11.530;2022-07-29T03:00:34;95621.78;;;19.78;100.00
55149;BME280;49539;48.160;11.530;2022-07-29T03:03:03;95626.03;;;19.73;100.00
55149;BME280;49539;48.160;11.530;2022-07-29T03:05:31;95626.56;;;19.57;100.00
55149;BME280;49539;48.160;11.530;2022-07-29T03:08:04;95628.25;;;19.49;100.00
55149;BME280;49539;48.160;11.530;2022-07-29T03:10:30;95639.47;;;19.40;100.00
55149;BME280;49539;48.160;11.530;2022-07-29T03:12:57;95638.34;;;19.31;100.00
55149;BME280;49539;48.160;11.530;2022-07-29T03:15:23;95630.44;;;19.19;100.00
55149;BME280;49539;48.160;11.530;2022-07-29T03:17:49;95635.13;;;19.13;100.00
55149;BME280;49539;48.160;11.530;2022-07-29T03:20:17;95631.44;;;19.21;100.00
55149;BME280;49539;48.160;11.530;2022-07-29T03:22:44;95635.75;;;19.02;100.00
55149;BME280;49539;48.160;11.530;2022-07-29T03:25:13;95633.94;;;18.78;100.00
55149;BME280;49539;48.160;11.530;2022-07-29T03:27:39;95631.59;;;18.92;100.00
55149;BME280;49539;48.160;11.530;2022-07-29T03:30:06;95631.44;;;19.01;100.00
55149;BME280;49539;48.160;11.530;2022-07-29T03:32:32;95628.81;;;18.71;100.00
55149;BME280;49539;48.160;11.530;2022-07-29T03:34:58;95636.50;;;18.67;100.00
55149;BME280;49539;48.160;11.530;2022-07-29T03:37:23;95629.94;;;18.79;100.00
55149;BME280;49539;48.160;11.530;2022-07-29T03:39:49;95627.38;;;18.76;100.00
55149;BME280;49539;48.160;11.530;2022-07-29T03:42:17;95643.56;;;18.68;100.00
55149;BME280;49539;48.160;11.530;2022-07-29T03:44:47;95634.31;;;18.71;100.00
55149;BME280;49539;48.160;11.530;2022-07-29T03:47:14;95640.63;;;18.57;100.00
55149;BME280;49539;48.160;11.530;2022-07-29T03:49:44;95638.13;;;18.59;100.00
55149;BME280;49539;48.160;11.530;2022-07-29T03:52:12;95643.72;;;18.44;100.00
55149;BME280;49539;48.160;11.530;2022-07-29T03:54:38;95644.38;;;18.39;100.00
55149;BME280;49539;48.160;11.530;2022-07-29T03:57:05;95648.63;;;18.55;100.00
55149;BME280;49539;48.160;11.530;2022-07-29T03:59:32;95651.88;;;18.53;100.00
55149;BME280;49539;48.160;11.530;2022-07-29T04:02:00;95659.56;;;18.64;100.00
55149;BME280;49539;48.160;11.530;2022-07-29T04:04:27;95657.00;;;18.46;100.00
55149;BME280;49539;48.160;11.530;2022-07-29T04:06:52;95660.81;;;18.48;100.00
55149;BME280;49539;48.160;11.530;2022-07-29T04:09:18;95651.50;;;18.46;100.00
55149;BME280;49539;48.160;11.530;2022-07-29T04:11:44;95657.38;;;18.53;100.00
55149;BME280;49539;48.160;11.530;2022-07-29T04:14:10;95645.09;;;18.54;100.00
55149;BME280;49539;48.160;11.530;2022-07-29T04:16:35;95646.09;;;18.37;100.00
55149;BME280;49539;48.160;11.530;2022-07-29T04:19:00;95645.28;;;18.51;100.00
55149;BME280;49539;48.160;11.530;2022-07-29T04:21:26;95657.19;;;18.57;100.00
55149;BME280;49539;48.160;11.530;2022-07-29T04:23:51;95654.19;;;18.40;100.00
55149;BME280;49539;48.160;11.530;2022-07-29T04:26:17;95657.88;;;18.52;100.00
55149;BME280;49539;48.160;11.530;2022-07-29T04:28:43;95660.69;;;18.72;100.00
55149;BME280;49539;48.160;11.530;2022-07-29T04:31:09;95663.03;;;18.79;100.00
55149;BME280;49539;48.160;11.530;2022-07-29T04:33:35;95656.31;;;18.80;100.00
55149;BME280;49539;48.160;11.530;2022-07-29T04:36:00;95670.84;;;18.81;100.00
55149;BME280;49539;48.160;11.530;2022-07-29T04:38:26;95666.38;;;19.04;100.00
55149;BME280;49539;48.160;11.530;2022-07-29T04:40:51;95671.44;;;19.05;100.00
55149;BME280;49539;48.160;11.530;2022-07-29T04:43:17;95675.41;;;19.25;100.00
55149;BME280;49539;48.160;11.530;2022-07-29T04:45:42;95675.91;;;19.23;100.00
55149;BME280;49539;48.160;11.530;2022-07-29T04:48:08;95683.59;;;19.34;100.00
55149;BME280;49539;48.160;11.530;2022-07-29T04:50:33;95677.38;;;19.39;100.00
55149;BME280;49539;48.160;11.530;2022-07-29T04:52:59;95679.91;;;19.43;100.00
55149;BME280;49539;48.160;11.530;2022-07-29T04:55:24;95682.41;;;19.41;100.00
55149;BME280;49539;48.160;11.530;2022-07-29T04:57:50;95682.00;;;19.48;100.00
55149;BME280;49539;48.160;11.530;2022-07-29T05:00:16;95690.69;;;19.61;100.00
55149;BME280;49539;48.160;11.530;2022-07-29T05:02:41;95685.94;;;19.62;100.00
55149;BME280;49539;48.160;11.530;2022-07-29T05:05:07;95687.44;;;19.63;100.00
55149;BME280;49539;48.160;11.530;2022-07-29T05:07:33;95692.88;;;19.57;100.00
55149;BME280;49539;48.160;11.530;2022-07-29T05:09:58;95688.59;;;19.56;100.00
55149;BME280;49539;48.160;11.530;2022-07-29T05:12:24;95692.13;;;19.56;100.00
55149;BME280;49539;48.160;11.530;2022-07-29T05:14:50;95692.06;;;19.51;100.00
55149;BME280;49539;48.160;11.530;2022-07-29T05:17:15;95693.03;;;19.48;100.00
55149;BME280;49539;48.160;11.530;2022-07-29T05:19:41;95686.19;;;19.43;100.00
55149;BME280;49539;48.160;11.530;2022-07-29T05:22:07;95691.31;;;19.50;100.00
55149;BME280;49539;48.160;11.530;2022-07-29T05:24:32;95697.25;;;19.64;100.00
55149;BME280;49539;48.160;11.530;2022-07-29T05:26:57;95695.59;;;19.72;100.00
55149;BME280;49539;48.160;11.530;2022-07-29T05:29:23;95693.50;;;19.67;100.00
55149;BME280;49539;48.160;11.530;2022-07-29T05:31:48;95691.84;;;19.75;100.00
55149;BME280;49539;48.160;11.530;2022-07-29T05:34:14;95694.28;;;19.67;100.00
55149;BME280;49539;48.160;11.530;2022-07-29T05:36:39;95705.13;;;19.71;100.00
55149;BME280;49539;48.160;11.530;2022-07-29T05:39:05;95700.63;;;19.73;100.00
55149;BME280;49539;48.160;11.530;2022-07-29T05:41:33;95704.00;;;19.83;100.00
55149;BME280;49539;48.160;11.530;2022-07-29T05:43:58;95708.28;;;19.84;100.00
55149;BME280;49539;48.160;11.530;2022-07-29T05:46:24;95710.78;;;19.82;100.00
55149;BME280;49539;48.160;11.530;2022-07-29T05:48:49;95707.53;;;19.83;100.00
55149;BME280;49539;48.160;11.530;2022-07-29T05:51:14;95701.31;;;19.89;100.00
55149;BME280;49539;48.160;11.530;2022-07-29T05:53:40;95711.06;;;19.84;100.00
55149;BME280;49539;48.160;11.530;2022-07-29T05:56:06;95708.63;;;19.92;100.00
55149;BME280;49539;48.160;11.530;2022-07-29T05:58:32;95701.13;;;19.98;100.00
55149;BME280;49539;48.160;11.530;2022-07-29T06:00:58;95695.88;;;20.00;100.00
55149;BME280;49539;48.160;11.530;2022-07-29T06:03:26;95702.06;;;20.15;100.00
55149;BME280;49539;48.160;11.530;2022-07-29T06:05:52;95693.66;;;20.30;100.00
55149;BME280;49539;48.160;11.530;2022-07-29T06:08:17;95702.38;;;20.23;100.00
55149;BME280;49539;48.160;11.530;2022-07-29T06:10:43;95698.41;;;20.29;100.00
55149;BME280;49539;48.160;11.530;2022-07-29T06:13:09;95699.50;;;20.38;100.00
55149;BME280;49539;48.160;11.530;2022-07-29T06:15:34;95705.03;;;20.38;100.00
55149;BME280;49539;48.160;11.530;2022-07-29T06:18:03;95703.56;;;20.42;100.00
55149;BME280;49539;48.160;11.530;2022-07-29T06:20:29;95700.19;;;20.32;100.00
55149;BME280;49539;48.160;11.530;2022-07-29T06:22:55;95700.97;;;20.33;100.00
55149;BME280;49539;48.160;11.530;2022-07-29T06:25:21;95697.19;;;20.36;100.00
55149;BME280;49539;48.160;11.530;2022-07-29T06:27:46;95703.94;;;20.29;100.00
55149;BME280;49539;48.160;11.530;2022-07-29T06:30:12;95704.28;;;20.37;100.00
55149;BME280;49539;48.160;11.530;2022-07-29T06:32:38;95704.56;;;20.45;100.00
55149;BME280;49539;48.160;11.530;2022-07-29T06:35:03;95704.69;;;20.56;100.00
55149;BME280;49539;48.160;11.530;2022-07-29T06:37:29;95701.19;;;20.61;100.00
55149;BME280;49539;48.160;11.530;2022-07-29T06:39:54;95711.09;;;20.73;100.00
55149;BME280;49539;48.160;11.530;2022-07-29T06:42:42;95707.63;;;20.78;100.00
55149;BME280;49539;48.160;11.530;2022-07-29T06:45:08;95708.22;;;20.94;100.00
55149;BME280;49539;48.160;11.530;2022-07-29T06:47:34;95703.47;;;21.00;100.00
55149;BME280;49539;48.160;11.530;2022-07-29T06:49:59;95706.56;;;21.08;100.00
55149;BME280;49539;48.160;11.530;2022-07-29T06:52:25;95711.13;;;21.16;100.00
55149;BME280;49539;48.160;11.530;2022-07-29T06:54:50;95706.13;;;21.26;100.00
55149;BME280;49539;48.160;11.530;2022-07-29T06:57:16;95712.72;;;21.28;100.00
55149;BME280;49539;48.160;11.530;2022-07-29T06:59:41;95717.19;;;21.20;100.00
55149;BME280;49539;48.160;11.530;2022-07-29T07:02:07;95720.75;;;21.26;100.00
55149;BME280;49539;48.160;11.530;2022-07-29T07:04:32;95722.09;;;21.37;100.00
55149;BME280;49539;48.160;11.530;2022-07-29T07:06:58;95726.94;;;21.53;100.00
55149;BME280;49539;48.160;11.530;2022-07-29T07:09:24;95727.66;;;21.42;100.00
55149;BME280;49539;48.160;11.530;2022-07-29T07:11:50;95727.41;;;21.46;100.00
55149;BME280;49539;48.160;11.530;2022-07-29T07:14:15;95722.63;;;21.46;100.00
55149;BME280;49539;48.160;11.530;2022-07-29T07:16:41;95724.72;;;21.68;100.00
55149;BME280;49539;48.160;11.530;2022-07-29T07:19:06;95712.69;;;21.83;100.00
55149;BME280;49539;48.160;11.530;2022-07-29T07:21:32;95721.69;;;21.61;100.00
55149;BME280;49539;48.160;11.530;2022-07-29T07:23:59;95708.63;;;21.72;100.00
55149;BME280;49539;48.160;11.530;2022-07-29T07:26:25;95711.66;;;21.80;100.00
55149;BME280;49539;48.160;11.530;2022-07-29T07:28:50;95707.38;;;21.85;100.00
55149;BME280;49539;48.160;11.530;2022-07-29T07:31:16;95710.44;;;21.92;100.00
55149;BME280;49539;48.160;11.530;2022-07-29T07:33:41;95711.97;;;22.04;100.00
55149;BME280;49539;48.160;11.530;2022-07-29T07:36:07;95712.53;;;22.20;100.00
55149;BME280;49539;48.160;11.530;2022-07-29T07:38:33;95715.34;;;22.31;100.00
55149;BME280;49539;48.160;11.530;2022-07-29T07:40:58;95705.00;;;22.43;100.00
55149;BME280;49539;48.160;11.530;2022-07-29T07:43:24;95710.78;;;22.34;100.00
55149;BME280;49539;48.160;11.530;2022-07-29T07:45:49;95699.19;;;22.41;100.00
55149;BME280;49539;48.160;11.530;2022-07-29T07:48:15;95709.03;;;22.31;100.00
55149;BME280;49539;48.160;11.530;2022-07-29T07:50:40;95704.47;;;22.33;100.00
55149;BME280;49539;48.160;11.530;2022-07-29T07:53:05;95700.94;;;22.38;100.00
55149;BME280;49539;48.160;11.530;2022-07-29T07:55:31;95702.97;;;22.60;100.00
55149;BME280;49539;48.160;11.530;2022-07-29T07:57:56;95697.44;;;22.71;100.00
55149;BME280;49539;48.160;11.530;2022-07-29T08:00:22;95700.47;;;22.57;100.00
55149;BME280;49539;48.160;11.530;2022-07-29T08:02:47;95702.19;;;22.88;100.00
55149;BME280;49539;48.160;11.530;2022-07-29T08:05:13;95705.47;;;23.03;100.00
55149;BME280;49539;48.160;11.530;2022-07-29T08:07:46;95717.59;;;23.00;100.00
55149;BME280;49539;48.160;11.530;2022-07-29T08:10:13;95709.53;;;23.02;100.00
55149;BME280;49539;48.160;11.530;2022-07-29T08:12:38;95707.97;;;23.18;100.00
55149;BME280;49539;48.160;11.530;2022-07-29T08:15:04;95709.47;;;23.24;100.00
55149;BME280;49539;48.160;11.530;2022-07-29T08:17:32;95718.00;;;23.43;100.00
55149;BME280;49539;48.160;11.530;2022-07-29T08:19:57;95719.53;;;23.39;100.00
55149;BME280;49539;48.160;11.530;2022-07-29T08:22:22;95711.94;;;23.45;100.00
55149;BME280;49539;48.160;11.530;2022-07-29T08:24:48;95712.50;;;23.26;100.00
55149;BME280;49539;48.160;11.530;2022-07-29T08:27:21;95705.69;;;23.16;100.00
55149;BME280;49539;48.160;11.530;2022-07-29T08:29:47;95702.78;;;23.56;100.00
55149;BME280;49539;48.160;11.530;2022-07-29T08:32:12;95701.72;;;23.75;100.00
55149;BME280;49539;48.160;11.530;2022-07-29T08:34:37;95707.06;;;23.68;100.00
55149;BME280;49539;48.160;11.530;2022-07-29T08:37:03;95709.13;;;24.09;100.00
55149;BME280;49539;48.160;11.530;2022-07-29T08:39:28;95716.28;;;24.40;100.00
55149;BME280;49539;48.160;11.530;2022-07-29T08:41:54;95708.72;;;24.40;100.00
55149;BME280;49539;48.160;11.530;2022-07-29T08:44:20;95717.13;;;24.65;100.00
55149;BME280;49539;48.160;11.530;2022-07-29T08:46:47;95721.22;;;24.58;100.00
55149;BME280;49539;48.160;11.530;2022-07-29T08:49:14;95716.25;;;24.75;100.00
55149;BME280;49539;48.160;11.530;2022-07-29T08:51:40;95715.66;;;24.58;100.00
55149;BME280;49539;48.160;11.530;2022-07-29T08:54:08;95714.28;;;24.70;100.00
55149;BME280;49539;48.160;11.530;2022-07-29T08:56:34;95715.88;;;24.60;100.00
55149;BME280;49539;48.160;11.530;2022-07-29T08:59:03;95711.84;;;24.61;100.00
55149;BME280;49539;48.160;11.530;2022-07-29T09:01:32;95722.56;;;24.76;100.00
55149;BME280;49539;48.160;11.530;2022-07-29T09:03:59;95724.53;;;24.57;100.00
55149;BME280;49539;48.160;11.530;2022-07-29T09:06:30;95729.09;;;24.84;100.00
55149;BME280;49539;48.160;11.530;2022-07-29T09:08:58;95731.88;;;24.84;100.00
55149;BME280;49539;48.160;11.530;2022-07-29T09:11:25;95728.53;;;24.91;100.00
55149;BME280;49539;48.160;11.530;2022-07-29T09:13:50;95724.75;;;24.89;100.00
55149;BME280;49539;48.160;11.530;2022-07-29T09:16:15;95732.50;;;24.71;100.00
55149;BME280;49539;48.160;11.530;2022-07-29T09:18:43;95739.41;;;24.65;100.00
55149;BME280;49539;48.160;11.530;2022-07-29T09:21:14;95725.88;;;24.74;100.00
55149;BME280;49539;48.160;11.530;2022-07-29T09:24:13;95718.38;;;24.94;100.00
55149;BME280;49539;48.160;11.530;2022-07-29T09:26:41;95717.72;;;24.82;100.00
55149;BME280;49539;48.160;11.530;2022-07-29T09:29:18;95716.22;;;24.81;100.00
55149;BME280;49539;48.160;11.530;2022-07-29T09:31:49;95713.66;;;24.83;100.00
55149;BME280;49539;48.160;11.530;2022-07-29T09:34:17;95713.31;;;24.92;100.00
55149;BME280;49539;48.160;11.530;2022-07-29T09:36:47;95725.28;;;24.87;100.00
55149;BME280;49539;48.160;11.530;2022-07-29T09:39:15;95720.31;;;24.74;100.00
55149;BME280;49539;48.160;11.530;2022-07-29T09:44:10;95720.69;;;24.90;100.00
55149;BME280;49539;48.160;11.530;2022-07-29T09:46:36;95719.06;;;25.00;100.00
55149;BME280;49539;48.160;11.530;2022-07-29T09:49:12;95718.88;;;24.92;100.00
55149;BME280;49539;48.160;11.530;2022-07-29T09:51:38;95714.50;;;24.72;100.00
55149;BME280;49539;48.160;11.530;2022-07-29T09:54:23;95721.16;;;24.64;100.00
55149;BME280;49539;48.160;11.530;2022-07-29T09:56:49;95719.22;;;24.83;100.00
55149;BME280;49539;48.160;11.530;2022-07-29T09:59:14;95712.22;;;25.01;100.00
55149;BME280;49539;48.160;11.530;2022-07-29T10:01:41;95707.59;;;25.09;100.00
55149;BME280;49539;48.160;11.530;2022-07-29T10:04:06;95711.56;;;25.19;100.00
55149;BME280;49539;48.160;11.530;2022-07-29T10:06:32;95713.31;;;25.22;100.00
55149;BME280;49539;48.160;11.530;2022-07-29T10:09:10;95714.13;;;25.17;100.00
55149;BME280;49539;48.160;11.530;2022-07-29T10:11:36;95713.91;;;25.15;100.00
55149;BME280;49539;48.160;11.530;2022-07-29T10:14:03;95715.09;;;25.20;100.00
55149;BME280;49539;48.160;11.530;2022-07-29T10:16:29;95712.31;;;25.20;100.00
55149;BME280;49539;48.160;11.530;2022-07-29T10:18:58;95719.22;;;25.13;100.00
55149;BME280;49539;48.160;11.530;2022-07-29T10:21:25;95710.81;;;25.19;100.00
55149;BME280;49539;48.160;11.530;2022-07-29T10:23:51;95715.84;;;25.45;100.00
55149;BME280;49539;48.160;11.530;2022-07-29T10:26:16;95714.72;;;25.10;100.00
55149;BME280;49539;48.160;11.530;2022-07-29T10:28:42;95708.78;;;25.19;100.00
55149;BME280;49539;48.160;11.530;2022-07-29T10:31:15;95709.25;;;25.23;100.00
55149;BME280;49539;48.160;11.530;2022-07-29T10:36:19;95711.09;;;25.40;100.00
55149;BME280;49539;48.160;11.530;2022-07-29T10:44:14;95713.84;;;24.91;100.00
55149;BME280;49539;48.160;11.530;2022-07-29T10:46:40;95701.03;;;25.07;100.00
55149;BME280;49539;48.160;11.530;2022-07-29T10:49:13;95701.53;;;25.05;100.00
55149;BME280;49539;48.160;11.530;2022-07-29T10:52:02;95693.13;;;25.60;100.00
55149;BME280;49539;48.160;11.530;2022-07-29T10:59:52;95683.84;;;25.70;100.00
55149;BME280;49539;48.160;11.530;2022-07-29T11:05:08;95678.63;;;26.37;100.00
55149;BME280;49539;48.160;11.530;2022-07-29T11:07:36;95690.19;;;26.28;100.00
55149;BME280;49539;48.160;11.530;2022-07-29T11:15:08;95689.22;;;26.57;92.52
55149;BME280;49539;48.160;11.530;2022-07-29T11:20:42;95678.34;;;26.99;94.39
55149;BME280;49539;48.160;11.530;2022-07-29T11:23:23;95679.91;;;27.27;94.07
55149;BME280;49539;48.160;11.530;2022-07-29T11:29:08;95686.75;;;26.99;70.48
55149;BME280;49539;48.160;11.530;2022-07-29T11:31:43;95678.28;;;27.18;75.33
55149;BME280;49539;48.160;11.530;2022-07-29T11:34:25;95675.50;;;27.31;82.77
55149;BME280;49539;48.160;11.530;2022-07-29T11:39:32;95671.16;;;27.57;65.68
55149;BME280;49539;48.160;11.530;2022-07-29T11:45:01;95678.63;;;27.41;57.33
55149;BME280;49539;48.160;11.530;2022-07-29T11:47:28;95680.03;;;27.21;60.83
55149;BME280;49539;48.160;11.530;2022-07-29T11:49:56;95674.78;;;26.85;63.16
55149;BME280;49539;48.160;11.530;2022-07-29T11:52:22;95664.50;;;27.07;59.77
55149;BME280;49539;48.160;11.530;2022-07-29T11:54:49;95660.53;;;27.02;69.31
55149;BME280;49539;48.160;11.530;2022-07-29T11:57:19;95659.75;;;26.88;66.92
55149;BME280;49539;48.160;11.530;2022-07-29T11:59:45;95672.75;;;26.99;70.55
55149;BME280;49539;48.160;11.530;2022-07-29T12:02:12;95658.16;;;26.93;70.78
55149;BME280;49539;48.160;11.530;2022-07-29T12:04:55;95660.19;;;26.92;77.82
55149;BME280;49539;48.160;11.530;2022-07-29T12:07:33;95662.13;;;26.97;76.46
55149;BME280;49539;48.160;11.530;2022-07-29T12:09:59;95653.19;;;26.72;80.59
55149;BME280;49539;48.160;11.530;2022-07-29T12:12:25;95652.97;;;26.38;79.35
55149;BME280;49539;48.160;11.530;2022-07-29T12:14:50;95658.06;;;26.53;84.05
55149;BME280;49539;48.160;11.530;2022-07-29T12:17:33;95653.00;;;26.97;74.92
55149;BME280;49539;48.160;11.530;2022-07-29T12:20:03;95656.66;;;26.92;79.37
55149;BME280;49539;48.160;11.530;2022-07-29T12:25:02;95643.13;;;27.09;75.27
55149;BME280;49539;48.160;11.530;2022-07-29T12:27:28;95646.56;;;27.15;82.30
55149;BME280;49539;48.160;11.530;2022-07-29T12:29:57;95641.59;;;26.95;83.78
55149;BME280;49539;48.160;11.530;2022-07-29T12:32:23;95642.88;;;26.67;86.20
55149;BME280;49539;48.160;11.530;2022-07-29T12:34:49;95647.44;;;26.52;88.07
55149;BME280;49539;48.160;11.530;2022-07-29T12:37:16;95648.97;;;26.66;85.81
55149;BME280;49539;48.160;11.530;2022-07-29T12:39:42;95639.88;;;26.92;85.59
55149;BME280;49539;48.160;11.530;2022-07-29T12:42:12;95639.78;;;26.97;82.29
55149;BME280;49539;48.160;11.530;2022-07-29T12:44:50;95642.75;;;26.86;80.63
55149;BME280;49539;48.160;11.530;2022-07-29T12:47:17;95640.88;;;26.49;78.99
55149;BME280;49539;48.160;11.530;2022-07-29T12:49:47;95639.84;;;26.33;81.55
55149;BME280;49539;48.160;11.530;2022-07-29T12:52:29;95641.94;;;26.14;86.39
55149;BME280;49539;48.160;11.530;2022-07-29T12:54:55;95649.91;;;26.23;82.87
55149;BME280;49539;48.160;11.530;2022-07-29T12:57:20;95642.22;;;26.10;85.11
55149;BME280;49539;48.160;11.530;2022-07-29T12:59:59;95641.56;;;26.04;85.79
55149;BME280;49539;48.160;11.530;2022-07-29T13:02:25;95644.03;;;26.08;82.49
55149;BME280;49539;48.160;11.530;2022-07-29T13:04:58;95640.69;;;25.77;89.19
55149;BME280;49539;48.160;11.530;2022-07-29T13:07:26;95646.00;;;25.75;84.47
55149;BME280;49539;48.160;11.530;2022-07-29T13:09:52;95651.50;;;25.62;88.92
55149;BME280;49539;48.160;11.530;2022-07-29T13:12:18;95644.97;;;25.78;86.83
55149;BME280;49539;48.160;11.530;2022-07-29T13:14:46;95647.59;;;25.70;91.40
55149;BME280;49539;48.160;11.530;2022-07-29T13:17:13;95648.97;;;25.64;92.88
55149;BME280;49539;48.160;11.530;2022-07-29T13:19:52;95643.38;;;25.83;91.77
55149;BME280;49539;48.160;11.530;2022-07-29T13:22:20;95649.41;;;25.68;96.02
55149;BME280;49539;48.160;11.530;2022-07-29T13:24:55;95650.00;;;25.61;97.16
55149;BME280;49539;48.160;11.530;2022-07-29T13:27:26;95651.81;;;25.39;100.00
55149;BME280;49539;48.160;11.530;2022-07-29T13:29:52;95655.00;;;25.24;100.00
55149;BME280;49539;48.160;11.530;2022-07-29T13:32:21;95653.06;;;25.38;100.00
55149;BME280;49539;48.160;11.530;2022-07-29T13:34:46;95660.22;;;25.34;100.00
55149;BME280;49539;48.160;11.530;2022-07-29T13:37:12;95656.66;;;25.33;100.00
55149;BME280;49539;48.160;11.530;2022-07-29T13:39:37;95652.31;;;25.38;100.00
55149;BME280;49539;48.160;11.530;2022-07-29T13:42:04;95657.53;;;25.47;100.00